Ozawkie, Kansas
Current Conditions -  °F | °C
As of 12:53 AM on Thursday 23 Oct 2014 (Local Time) from KTOP Reporting Station
Moderate Rain Moderate Rain  
Wind Chill: 64°   Ceiling: 7000
Heat Index: 64°   Visibility: 4mi
Dew Point: 61°   Wind: 0mph
Humidity: 90%   Direction: NA
Pressure: 30.09"   Gusts: NA
Location:  39.23°N, 95.47°W
Report Text: KTOP 230553Z AUTO 00000KT 4SM RA BR FEW038 BKN070 OVC090 18/16 A3009 RMK AO2 RAB15 SLP183 P0002 60002 T01780161 10217 20178 402670111 53002
Loading
Personal Weather Stations






























Interactive Weather Map
Tropical Storm Tracking
New forecast layout! Learn more

10-Day Weather Forecast

Advertisements
Track Severe Weather on mobile